createdAt,value
2023-04-25T00:02:40.610Z,99855.19
2023-04-25T00:07:33.992Z,99853.38
2023-04-25T00:12:29.619Z,99833.00
2023-04-25T00:17:23.612Z,99847.22
2023-04-25T00:22:16.978Z,99824.44
2023-04-25T00:27:10.170Z,99816.59
2023-04-25T00:32:04.261Z,99834.31
2023-04-25T00:36:58.039Z,99835.72
2023-04-25T00:41:55.034Z,99828.25
2023-04-25T00:46:50.992Z,99843.97
2023-04-25T00:51:46.111Z,99845.19
2023-04-25T00:56:39.208Z,99822.56
2023-04-25T01:01:33.153Z,99848.50
2023-04-25T01:06:25.834Z,99821.13
2023-04-25T01:11:18.768Z,99828.56
2023-04-25T01:16:12.743Z,99845.72
2023-04-25T01:21:12.849Z,99831.84
2023-04-25T01:26:05.325Z,99836.63
2023-04-25T01:30:59.481Z,99845.44
2023-04-25T01:35:52.033Z,99849.78
2023-04-25T01:40:48.273Z,99833.16
2023-04-25T01:45:43.096Z,99825.22
2023-04-25T01:50:38.035Z,99847.84
2023-04-25T01:55:31.311Z,99823.88
2023-04-25T02:00:29.618Z,99859.22
2023-04-25T02:05:24.215Z,99800.09
2023-04-25T02:10:18.617Z,99819.25
2023-04-25T02:15:29.829Z,99812.13
2023-04-25T02:20:28.161Z,99824.78
2023-04-25T02:25:23.468Z,99826.06
2023-04-25T02:30:17.392Z,99805.16
2023-04-25T02:35:10.850Z,99808.88
2023-04-25T02:40:04.831Z,99771.09
2023-04-25T02:44:57.783Z,99814.06
2023-04-25T02:49:50.833Z,99791.28
2023-04-25T02:54:43.146Z,99814.22
2023-04-25T02:59:37.103Z,99801.09
2023-04-25T03:04:31.018Z,99791.56
2023-04-25T03:09:25.400Z,99818.69
2023-04-25T03:14:18.801Z,99778.28
2023-04-25T03:19:12.305Z,99798.41
2023-04-25T03:24:06.178Z,99796.22
2023-04-25T03:29:00.138Z,99807.09
2023-04-25T03:33:54.745Z,99777.31
2023-04-25T03:38:53.942Z,99806.22
2023-04-25T03:43:48.031Z,99795.72
2023-04-25T03:48:42.919Z,99788.38
2023-04-25T03:53:39.693Z,99802.75
2023-04-25T03:58:55.521Z,99797.53
2023-04-25T04:03:51.065Z,99771.13
2023-04-25T04:08:45.018Z,99771.25
2023-04-25T04:13:38.250Z,99780.72
2023-04-25T04:18:32.355Z,99769.44
2023-04-25T04:23:25.530Z,99769.81
2023-04-25T04:28:19.384Z,99768.84
2023-04-25T04:33:24.619Z,99791.75
2023-04-25T04:38:24.047Z,99803.50
2023-04-25T04:43:20.822Z,99800.63
2023-04-25T04:48:35.708Z,99829.97
2023-04-25T04:53:47.002Z,99832.88
2023-04-25T04:58:46.551Z,99836.50
2023-04-25T05:04:04.789Z,99805.81
2023-04-25T05:09:20.907Z,99807.50
2023-04-25T05:14:48.660Z,99831.97
2023-04-25T05:20:17.457Z,99821.28
2023-04-25T05:25:40.610Z,99857.34
2023-04-25T05:30:40.928Z,99839.81
2023-04-25T05:35:42.111Z,99840.66
2023-04-25T05:40:35.174Z,99826.00
2023-04-25T05:46:00.497Z,99840.13
2023-04-25T05:50:58.759Z,99833.31
2023-04-25T05:56:27.227Z,99887.06
2023-04-25T06:01:20.301Z,99899.69
2023-04-25T06:06:17.136Z,99884.50
2023-04-25T06:11:10.558Z,99867.16
2023-04-25T06:16:04.160Z,99914.19
2023-04-25T06:20:57.379Z,99926.50
2023-04-25T06:25:51.502Z,99927.34
2023-04-25T06:30:45.070Z,99935.31
2023-04-25T06:35:43.061Z,99902.03
2023-04-25T06:40:39.273Z,99931.78
2023-04-25T06:45:34.877Z,99895.19
2023-04-25T06:50:28.915Z,99953.47
2023-04-25T06:55:21.872Z,99945.50
2023-04-25T07:00:30.493Z,99969.69
2023-04-25T07:05:24.353Z,99959.19
2023-04-25T07:10:17.422Z,99969.56
2023-04-25T07:15:13.524Z,99930.56
2023-04-25T07:20:11.244Z,99939.13
2023-04-25T07:25:05.735Z,99946.38
2023-04-25T07:29:59.504Z,99951.81
2023-04-25T07:34:52.570Z,99965.47
2023-04-25T07:39:47.959Z,99970.91
2023-04-25T07:44:41.999Z,99986.00
2023-04-25T07:49:40.578Z,99979.25
2023-04-25T07:54:33.124Z,99994.22
2023-04-25T07:59:39.616Z,100001.50
2023-04-25T08:04:32.251Z,100016.47
2023-04-25T08:09:29.469Z,99995.59
2023-04-25T08:14:24.513Z,100020.13
2023-04-25T08:19:17.514Z,100008.75
2023-04-25T08:24:12.083Z,100016.59
2023-04-25T08:29:07.347Z,100015.53
2023-04-25T08:34:01.740Z,100048.38
2023-04-25T08:39:05.892Z,100050.69
2023-04-25T08:44:06.294Z,100044.78
2023-04-25T08:49:04.683Z,100034.38
2023-04-25T08:54:06.410Z,100064.06
2023-04-25T08:59:04.299Z,100068.41
2023-04-25T09:03:59.565Z,100055.28
2023-04-25T09:08:53.588Z,100069.53
2023-04-25T09:13:48.341Z,100043.91
2023-04-25T09:18:54.771Z,100040.19
2023-04-25T09:23:50.388Z,100094.03
2023-04-25T09:28:44.691Z,100095.88
2023-04-25T09:33:37.974Z,100092.47
2023-04-25T09:38:34.334Z,100091.88
2023-04-25T09:43:36.986Z,100066.50
2023-04-25T09:48:31.180Z,100077.25
2023-04-25T09:53:29.066Z,100083.66
2023-04-25T09:58:43.934Z,100069.72
2023-04-25T10:03:39.414Z,100090.91
2023-04-25T10:08:57.391Z,100069.56
2023-04-25T10:13:53.080Z,100076.09
2023-04-25T10:18:47.233Z,100044.38
2023-04-25T10:23:43.142Z,100057.50
2023-04-25T10:28:57.071Z,100068.06
2023-04-25T10:33:50.126Z,100036.75
2023-04-25T10:38:48.253Z,100058.53
2023-04-25T10:43:48.506Z,100030.47
2023-04-25T10:48:51.648Z,100024.94
2023-04-25T10:53:51.118Z,100019.00
2023-04-25T10:58:52.194Z,100006.34
2023-04-25T11:04:04.377Z,100028.22
2023-04-25T11:09:04.217Z,100022.53
2023-04-25T11:14:05.500Z,100027.88
2023-04-25T11:19:07.007Z,99993.56
2023-04-25T11:24:04.164Z,100029.56
2023-04-25T11:29:07.517Z,100043.53
2023-04-25T11:34:08.296Z,100032.22
2023-04-25T11:39:08.801Z,100018.66
2023-04-25T11:44:08.825Z,100014.22
2023-04-25T11:49:06.337Z,100012.50
2023-04-25T11:54:08.275Z,99975.78
2023-04-25T11:59:10.780Z,99978.44
2023-04-25T12:04:24.536Z,99983.75
2023-04-25T12:09:25.260Z,100005.88
2023-04-25T12:14:30.554Z,99984.72
2023-04-25T12:19:25.184Z,99967.81
2023-04-25T12:24:29.364Z,99994.28
2023-04-25T12:29:29.565Z,99999.69
2023-04-25T12:34:28.600Z,99956.59
2023-04-25T12:39:25.652Z,99967.00
2023-04-25T12:44:21.833Z,99956.84
2023-04-25T12:49:19.507Z,99943.78
2023-04-25T12:54:17.060Z,99968.56
2023-04-25T12:59:10.949Z,99970.47
2023-04-25T13:04:07.845Z,99958.38
2023-04-25T13:09:05.500Z,99961.19
2023-04-25T13:14:00.884Z,99945.34
2023-04-25T13:18:58.946Z,99937.16
2023-04-25T13:23:51.736Z,99963.59
2023-04-25T13:28:46.611Z,99987.28
2023-04-25T13:33:39.449Z,99981.00
2023-04-25T13:38:33.481Z,99980.88
2023-04-25T13:43:27.728Z,99970.00
2023-04-25T13:48:22.111Z,99948.00
2023-04-25T13:53:15.577Z,99955.72
2023-04-25T13:58:11.135Z,99925.69
2023-04-25T14:03:09.316Z,99985.44
2023-04-25T14:08:03.276Z,99963.81
2023-04-25T14:13:01.736Z,99975.69
2023-04-25T14:17:54.920Z,99990.53
2023-04-25T14:22:48.816Z,99930.75
2023-04-25T14:27:42.372Z,99944.28
2023-04-25T14:32:36.104Z,99981.81
2023-04-25T14:37:30.438Z,99987.72
2023-04-25T14:42:23.862Z,99991.03
2023-04-25T14:47:18.583Z,99973.03
2023-04-25T14:52:12.861Z,99973.75
2023-04-25T14:57:06.932Z,99995.72
2023-04-25T15:02:01.823Z,100004.28
2023-04-25T15:06:55.645Z,99993.78
2023-04-25T15:11:49.043Z,99983.06
2023-04-25T15:16:42.206Z,100022.63
2023-04-25T15:21:36.422Z,100015.53
2023-04-25T15:26:29.985Z,100021.09
2023-04-25T15:31:23.613Z,100010.44
2023-04-25T15:36:18.488Z,99993.41
2023-04-25T15:41:11.693Z,100024.19
2023-04-25T15:46:06.979Z,100034.59
2023-04-25T15:51:00.958Z,100017.69
2023-04-25T15:55:53.750Z,100015.84
2023-04-25T16:00:49.219Z,99999.81
2023-04-25T16:05:41.986Z,100077.84
2023-04-25T16:10:35.575Z,100091.38
2023-04-25T16:15:29.054Z,100154.44
2023-04-25T16:20:23.038Z,100178.63
2023-04-25T16:25:16.798Z,100195.97
2023-04-25T16:30:11.060Z,100202.78
2023-04-25T16:35:03.976Z,100161.22
2023-04-25T16:40:01.034Z,100113.72
2023-04-25T16:44:57.851Z,100091.75
2023-04-25T16:49:51.221Z,100092.09
2023-04-25T16:54:44.946Z,100122.91
2023-04-25T16:59:38.827Z,100105.09
2023-04-25T17:04:32.218Z,100108.97
2023-04-25T17:09:27.166Z,100063.88
2023-04-25T17:14:21.705Z,100108.97
2023-04-25T17:19:14.738Z,100086.72
2023-04-25T17:24:09.987Z,100111.31
2023-04-25T17:29:03.830Z,100087.88
2023-04-25T17:33:58.759Z,100094.63
2023-04-25T17:38:52.213Z,100076.75
2023-04-25T17:43:47.387Z,100102.97
2023-04-25T17:48:40.624Z,100106.72
2023-04-25T17:53:33.613Z,100069.28
2023-04-25T17:58:28.146Z,100083.91
2023-04-25T18:03:22.389Z,100107.09
2023-04-25T18:08:16.239Z,100087.88
2023-04-25T18:13:10.096Z,100135.25
2023-04-25T18:18:14.725Z,100123.03
2023-04-25T18:23:12.376Z,100104.28
2023-04-25T18:28:06.122Z,100123.50
2023-04-25T18:33:00.210Z,100151.44
2023-04-25T18:37:53.840Z,100146.16
2023-04-25T18:42:47.346Z,100162.41
2023-04-25T18:47:41.413Z,100158.22
2023-04-25T18:52:34.742Z,100189.44
2023-04-25T18:57:28.129Z,100208.13
2023-04-25T19:02:23.537Z,100199.72
2023-04-25T19:07:16.924Z,100201.03
2023-04-25T19:12:10.597Z,100209.13
2023-04-25T19:17:05.043Z,100246.34
2023-04-25T19:21:59.200Z,100243.44
2023-04-25T19:26:53.567Z,100249.69
2023-04-25T19:31:47.948Z,100261.69
2023-04-25T19:36:43.263Z,100265.38
2023-04-25T19:41:39.100Z,100250.88
2023-04-25T19:46:32.672Z,100256.13
2023-04-25T19:51:25.527Z,100239.97
2023-04-25T19:56:18.972Z,100227.66
2023-04-25T20:01:13.174Z,100245.34
2023-04-25T20:06:06.783Z,100265.09
2023-04-25T20:10:59.663Z,100276.28
2023-04-25T20:15:53.063Z,100256.72
2023-04-25T20:20:50.830Z,100257.53
2023-04-25T20:25:48.845Z,100253.41
2023-04-25T20:30:45.332Z,100263.59
2023-04-25T20:35:38.695Z,100267.00
2023-04-25T20:40:32.468Z,100244.94
2023-04-25T20:45:29.992Z,100273.38
2023-04-25T20:50:22.997Z,100295.00
2023-04-25T20:55:16.208Z,100292.59
2023-04-25T21:00:26.912Z,100275.97
2023-04-25T21:05:22.391Z,100286.66
2023-04-25T21:10:16.472Z,100286.91
2023-04-25T21:15:13.111Z,100271.00
2023-04-25T21:20:11.153Z,100275.44
2023-04-25T21:25:07.677Z,100264.94
2023-04-25T21:30:01.379Z,100300.31
2023-04-25T21:34:56.030Z,100297.44
2023-04-25T21:39:48.852Z,100306.16
2023-04-25T21:44:43.613Z,100297.22
2023-04-25T21:49:35.945Z,100254.59
2023-04-25T21:54:29.463Z,100276.75
2023-04-25T21:59:25.616Z,100310.03
2023-04-25T22:04:19.137Z,100291.66
2023-04-25T22:09:13.290Z,100328.66
2023-04-25T22:14:07.488Z,100333.97
2023-04-25T22:19:01.390Z,100334.91
2023-04-25T22:23:55.253Z,100348.13
2023-04-25T22:28:48.427Z,100352.56
2023-04-25T22:33:42.454Z,100338.38
2023-04-25T22:38:35.264Z,100358.84
2023-04-25T22:43:30.275Z,100363.75
2023-04-25T22:48:23.866Z,100345.50
2023-04-25T22:53:17.297Z,100386.38
2023-04-25T22:58:10.566Z,100369.59
2023-04-25T23:03:04.980Z,100377.69
2023-04-25T23:07:59.120Z,100363.88
2023-04-25T23:12:53.053Z,100374.28
2023-04-25T23:17:46.740Z,100376.22
2023-04-25T23:22:40.179Z,100368.69
2023-04-25T23:27:33.871Z,100387.94
2023-04-25T23:32:27.254Z,100346.34
2023-04-25T23:37:20.735Z,100382.81
2023-04-25T23:42:13.460Z,100401.31
2023-04-25T23:47:07.765Z,100371.47
2023-04-25T23:52:01.832Z,100342.19
2023-04-25T23:56:59.702Z,100389.31
